Time;durP1;ratioP1;P1;durP2;ratioP2;P2;SDS_P1;SDS_P2;PMS_P1;PMS_P2;Temp;Humidity;BMP_temperature;BMP_pressure;BME280_temperature;BME280_humidity;BME280_pressure;Samples;Min_cycle;Max_cycle;Signal;HPM_P1;HPM_P2
2021/07/01 00:01:52;;;;;;;13.52;9.23;;;16.60;99.90;;;;;;5114026;28;20097;-73
2021/07/01 00:04:19;;;;;;;16.23;9.50;;;16.70;99.90;;;;;;5114009;28;20039;-74
2021/07/01 00:06:45;;;;;;;12.80;8.93;;;16.60;99.90;;;;;;5112934;28;20015;-73
2021/07/01 00:09:14;;;;;;;16.75;9.30;;;16.60;99.90;;;;;;5114879;27;20022;-73
2021/07/01 00:11:42;;;;;;;14.57;9.25;;;16.60;99.90;;;;;;5113790;28;20123;-73
2021/07/01 00:14:08;;;;;;;13.43;9.70;;;16.60;99.90;;;;;;5112018;28;20103;-73
2021/07/01 00:16:33;;;;;;;15.80;9.68;;;16.60;99.90;;;;;;5114097;27;20343;-74
2021/07/01 00:18:59;;;;;;;13.98;10.27;;;16.60;99.90;;;;;;5113620;28;20040;-74
2021/07/01 00:21:25;;;;;;;19.92;9.63;;;16.70;99.90;;;;;;5114080;28;20015;-73
2021/07/01 00:23:50;;;;;;;15.07;10.52;;;16.70;99.90;;;;;;5114040;28;20036;-73
2021/07/01 00:26:16;;;;;;;13.63;9.85;;;16.60;99.90;;;;;;5113554;28;20028;-74
2021/07/01 00:28:42;;;;;;;14.07;8.93;;;16.50;99.90;;;;;;5113208;28;20365;-74
2021/07/01 00:31:07;;;;;;;13.63;9.05;;;16.50;99.90;;;;;;5113540;28;20040;-74
2021/07/01 00:33:33;;;;;;;12.27;9.02;;;16.50;99.90;;;;;;5112152;28;20023;-74
2021/07/01 00:35:59;;;;;;;13.10;8.60;;;16.50;99.90;;;;;;5112901;28;20038;-72
2021/07/01 00:38:24;;;;;;;14.25;8.60;;;16.50;99.90;;;;;;5113128;28;20039;-74
2021/07/01 00:40:50;;;;;;;11.10;7.95;;;16.40;99.90;;;;;;5113150;28;20036;-73
2021/07/01 00:43:15;;;;;;;13.18;7.47;;;16.30;99.90;;;;;;5113275;28;20084;-74
2021/07/01 00:45:41;;;;;;;9.82;7.03;;;16.40;99.90;;;;;;5113416;28;20032;-73
2021/07/01 00:48:07;;;;;;;15.23;8.32;;;16.40;99.90;;;;;;5112902;28;20027;-74
2021/07/01 00:50:32;;;;;;;12.07;8.57;;;16.40;99.90;;;;;;5112284;28;20074;-71
2021/07/01 00:52:58;;;;;;;9.80;7.55;;;16.40;99.90;;;;;;5113188;27;20019;-73
2021/07/01 00:55:23;;;;;;;11.45;8.10;;;16.40;99.90;;;;;;5113091;28;20122;-73
2021/07/01 00:57:49;;;;;;;12.98;8.50;;;16.30;99.90;;;;;;5112871;28;20119;-72
2021/07/01 01:01:01;;;;;;;11.07;7.75;;;16.20;99.90;;;;;;5113551;28;20077;-73
2021/07/01 01:03:01;;;;;;;11.13;7.82;;;16.30;99.90;;;;;;5105179;28;20453;-73
2021/07/01 01:05:26;;;;;;;14.63;8.13;;;16.20;99.90;;;;;;5111746;28;20084;-73
2021/07/01 01:07:52;;;;;;;13.55;8.50;;;16.20;99.90;;;;;;5113183;28;20059;-73
2021/07/01 01:10:18;;;;;;;12.93;7.93;;;16.20;99.90;;;;;;5112845;28;20513;-74
2021/07/01 01:12:44;;;;;;;12.15;8.15;;;16.10;99.90;;;;;;5112606;28;20442;-73
2021/07/01 01:15:10;;;;;;;16.88;8.10;;;16.10;99.90;;;;;;5113492;28;20083;-74
2021/07/01 01:17:36;;;;;;;11.35;7.55;;;16.00;99.90;;;;;;5112664;28;20506;-74
2021/07/01 01:20:06;;;;;;;10.93;7.63;;;16.00;99.90;;;;;;5112516;28;20027;-73
2021/07/01 01:22:31;;;;;;;14.00;7.18;;;16.00;99.90;;;;;;5112533;28;20027;-73
2021/07/01 01:24:57;;;;;;;10.48;7.35;;;16.10;99.90;;;;;;5111614;28;20039;-73
2021/07/01 01:27:23;;;;;;;11.82;7.38;;;16.10;99.90;;;;;;5113050;28;20073;-75
2021/07/01 01:29:49;;;;;;;10.68;7.43;;;16.10;99.90;;;;;;5112956;27;20039;-71
2021/07/01 01:32:14;;;;;;;12.75;8.10;;;16.00;99.90;;;;;;5111421;28;20039;-72
2021/07/01 01:34:40;;;;;;;11.73;7.35;;;16.00;99.90;;;;;;5112478;28;20028;-73
2021/07/01 01:37:09;;;;;;;13.25;8.35;;;16.00;99.90;;;;;;5131903;27;20035;-73
2021/07/01 01:39:34;;;;;;;12.15;7.10;;;16.00;99.90;;;;;;5131763;27;20079;-74
2021/07/01 01:42:00;;;;;;;13.90;7.65;;;16.00;99.90;;;;;;5133200;27;20412;-73
2021/07/01 01:44:26;;;;;;;12.13;7.18;;;16.00;99.90;;;;;;5132623;27;20042;-73
2021/07/01 01:46:52;;;;;;;14.98;8.32;;;16.10;99.90;;;;;;5132400;27;20132;-73
2021/07/01 01:49:20;;;;;;;16.38;7.82;;;16.00;99.90;;;;;;5132924;27;20356;-72
2021/07/01 01:51:46;;;;;;;16.20;8.13;;;15.90;99.90;;;;;;5132339;27;20495;-72
2021/07/01 01:54:12;;;;;;;15.13;8.70;;;15.80;99.90;;;;;;5132066;27;20019;-72
2021/07/01 01:56:45;;;;;;;15.45;7.28;;;15.80;99.90;;;;;;5132426;27;20092;-73
2021/07/01 01:59:11;;;;;;;14.20;6.95;;;15.80;99.90;;;;;;5132473;27;20495;-72
2021/07/01 02:01:36;;;;;;;12.45;7.63;;;15.70;99.90;;;;;;5131231;27;20032;-74
2021/07/01 02:04:03;;;;;;;14.32;7.18;;;15.60;99.90;;;;;;5132611;27;20346;-71
2021/07/01 02:06:29;;;;;;;15.00;8.07;;;15.70;99.90;;;;;;5132331;27;20038;-72
2021/07/01 02:08:55;;;;;;;15.65;6.90;;;15.50;99.90;;;;;;5131745;27;20019;-72
2021/07/01 02:11:20;;;;;;;15.32;6.78;;;15.40;99.90;;;;;;5132052;27;20027;-72
2021/07/01 02:13:46;;;;;;;15.85;7.60;;;15.40;99.90;;;;;;5132143;27;20038;-74
2021/07/01 02:16:11;;;;;;;14.13;6.70;;;15.40;99.90;;;;;;5131976;27;20032;-74
2021/07/01 02:18:38;;;;;;;16.35;7.50;;;15.40;99.90;;;;;;5131910;27;20023;-74
2021/07/01 02:21:07;;;;;;;16.33;7.63;;;15.40;99.90;;;;;;5132230;27;20505;-73
2021/07/01 02:23:32;;;;;;;15.77;7.82;;;15.40;99.90;;;;;;5132061;27;20023;-73
2021/07/01 02:25:58;;;;;;;16.92;8.30;;;15.40;99.90;;;;;;5132066;27;20054;-72
2021/07/01 02:28:24;;;;;;;18.63;8.77;;;15.30;99.90;;;;;;5132019;27;20499;-74
2021/07/01 02:30:49;;;;;;;14.07;7.90;;;15.40;99.90;;;;;;5131771;27;20448;-73
2021/07/01 02:33:15;;;;;;;15.13;7.82;;;15.50;99.90;;;;;;5132716;27;20016;-73
2021/07/01 02:35:40;;;;;;;13.65;8.77;;;15.40;99.90;;;;;;5131946;27;20435;-74
2021/07/01 02:38:06;;;;;;;19.23;9.27;;;15.40;99.90;;;;;;5131859;27;20031;-71
2021/07/01 02:40:31;;;;;;;19.30;8.90;;;15.40;99.90;;;;;;5130376;27;20127;-72
2021/07/01 02:42:57;;;;;;;21.40;8.75;;;15.50;99.90;;;;;;5131785;27;20042;-73
2021/07/01 02:45:23;;;;;;;15.90;7.97;;;15.50;99.90;;;;;;5132380;27;20095;-73
2021/07/01 02:47:48;;;;;;;17.85;8.70;;;15.40;99.90;;;;;;5130847;27;20052;-72
2021/07/01 02:50:14;;;;;;;15.48;8.40;;;15.50;99.90;;;;;;5131428;27;20444;-74
2021/07/01 02:52:40;;;;;;;12.85;7.68;;;15.50;99.90;;;;;;5131394;27;20039;-72
2021/07/01 02:55:08;;;;;;;17.45;8.32;;;15.50;99.90;;;;;;5130421;28;20183;-73
2021/07/01 02:57:34;;;;;;;14.35;7.53;;;15.40;99.90;;;;;;5131367;27;20110;-73
2021/07/01 03:00:00;;;;;;;18.80;8.55;;;15.50;99.90;;;;;;5130828;27;20032;-73
2021/07/01 03:02:26;;;;;;;23.13;8.95;;;15.40;99.90;;;;;;5131431;27;20364;-73
2021/07/01 03:04:51;;;;;;;14.43;8.55;;;15.40;99.90;;;;;;5131587;27;20043;-73
2021/07/01 03:07:17;;;;;;;16.60;9.02;;;15.20;99.90;;;;;;5130370;27;20666;-74
2021/07/01 03:09:43;;;;;;;18.45;10.00;;;15.20;99.90;;;;;;5131418;27;20016;-72
2021/07/01 03:12:08;;;;;;;21.23;9.90;;;15.30;99.90;;;;;;5130953;27;20027;-72
2021/07/01 03:14:34;;;;;;;16.00;9.30;;;15.40;99.90;;;;;;5131433;27;20368;-72
2021/07/01 03:17:01;;;;;;;19.67;10.70;;;15.40;99.90;;;;;;5131402;27;20058;-73
2021/07/01 03:19:27;;;;;;;18.33;9.45;;;15.50;99.90;;;;;;5131192;27;20410;-73
2021/07/01 03:21:52;;;;;;;24.38;11.75;;;15.50;99.90;;;;;;5131608;27;20027;-73
2021/07/01 03:24:18;;;;;;;20.23;12.38;;;15.40;99.90;;;;;;5131995;27;20469;-74
2021/07/01 03:26:43;;;;;;;25.73;12.93;;;15.30;99.90;;;;;;5131332;27;20168;-72
2021/07/01 03:29:10;;;;;;;26.80;12.43;;;15.30;99.90;;;;;;5130352;27;20028;-71
2021/07/01 03:31:36;;;;;;;23.83;12.00;;;15.20;99.90;;;;;;5131586;27;20115;-71
2021/07/01 03:34:02;;;;;;;22.17;12.30;;;15.30;99.90;;;;;;5131134;27;20457;-72
2021/07/01 03:36:27;;;;;;;20.63;12.00;;;15.30;99.90;;;;;;5130643;27;20344;-74
2021/07/01 03:38:53;;;;;;;20.00;11.90;;;15.30;99.90;;;;;;5131942;27;20047;-74
2021/07/01 03:41:19;;;;;;;24.65;12.77;;;15.30;99.90;;;;;;5131073;27;20480;-73
2021/07/01 03:43:46;;;;;;;22.90;11.82;;;15.20;99.90;;;;;;5131538;27;20088;-73
2021/07/01 03:46:14;;;;;;;24.98;12.35;;;15.30;99.90;;;;;;5130097;27;20039;-73
2021/07/01 03:48:39;;;;;;;31.20;12.83;;;15.30;99.90;;;;;;5130862;27;20079;-73
2021/07/01 03:51:06;;;;;;;21.83;11.70;;;15.30;99.90;;;;;;5131529;27;20267;-73
2021/07/01 03:53:32;;;;;;;21.58;12.10;;;15.30;99.90;;;;;;5130915;27;20023;-73
2021/07/01 03:55:59;;;;;;;23.90;12.75;;;15.10;99.90;;;;;;5131164;27;20031;-73
2021/07/01 03:58:24;;;;;;;23.10;11.80;;;15.20;99.90;;;;;;5131095;27;20377;-74
2021/07/01 04:00:50;;;;;;;18.45;11.18;;;15.20;99.90;;;;;;5130696;27;20041;-74
2021/07/01 04:03:16;;;;;;;21.77;11.32;;;15.20;99.90;;;;;;5131982;27;20027;-72
2021/07/01 04:05:42;;;;;;;22.15;12.32;;;15.30;99.90;;;;;;5134331;27;20096;-74
2021/07/01 04:08:07;;;;;;;22.90;10.98;;;15.20;99.90;;;;;;5134688;27;20092;-73
2021/07/01 04:10:33;;;;;;;20.15;10.90;;;15.10;99.90;;;;;;5134646;27;20377;-73
2021/07/01 04:12:59;;;;;;;17.27;10.63;;;15.20;99.90;;;;;;5134458;27;20039;-74
2021/07/01 04:15:25;;;;;;;16.33;9.45;;;15.30;99.90;;;;;;5134757;27;20496;-74
2021/07/01 04:17:51;;;;;;;23.60;10.27;;;15.20;99.90;;;;;;5133839;27;20104;-73
2021/07/01 04:20:17;;;;;;;18.73;9.50;;;15.20;99.90;;;;;;5134450;27;20398;-73
2021/07/01 04:22:43;;;;;;;17.00;9.95;;;15.20;99.90;;;;;;5133123;27;20472;-73
2021/07/01 04:25:09;;;;;;;17.25;9.65;;;15.20;99.90;;;;;;5134491;27;20100;-73
2021/07/01 04:27:35;;;;;;;16.02;9.60;;;15.20;99.90;;;;;;5134095;27;20024;-73
2021/07/01 04:30:01;;;;;;;22.33;9.52;;;15.30;99.90;;;;;;5134439;27;20038;-72
2021/07/01 04:32:26;;;;;;;15.70;9.20;;;15.20;99.90;;;;;;5133977;27;20473;-74
2021/07/01 04:34:52;;;;;;;15.25;9.05;;;15.20;99.90;;;;;;5133935;27;20042;-73
2021/07/01 04:37:18;;;;;;;19.73;9.60;;;15.30;99.90;;;;;;5133702;27;20050;-74
2021/07/01 04:39:43;;;;;;;17.30;9.45;;;15.30;99.90;;;;;;5133004;27;20139;-72
2021/07/01 04:42:09;;;;;;;17.65;9.60;;;15.30;99.90;;;;;;5134380;27;20023;-73
2021/07/01 04:44:35;;;;;;;22.50;10.07;;;15.30;99.90;;;;;;5134017;27;20122;-72
2021/07/01 04:47:01;;;;;;;12.68;9.13;;;15.30;99.90;;;;;;5134117;27;20027;-73
2021/07/01 04:49:26;;;;;;;15.32;9.27;;;15.30;99.90;;;;;;5132835;27;20050;-73
2021/07/01 04:51:52;;;;;;;20.90;10.02;;;15.30;99.90;;;;;;5133807;27;20023;-72
2021/07/01 04:54:18;;;;;;;15.88;10.18;;;15.40;99.90;;;;;;5134068;27;20345;-72
2021/07/01 04:56:44;;;;;;;19.05;9.52;;;15.20;99.90;;;;;;5133595;27;20417;-74
2021/07/01 04:59:14;;;;;;;18.60;10.32;;;15.30;99.90;;;;;;5133398;27;20036;-73
2021/07/01 05:01:41;;;;;;;23.98;10.20;;;15.20;99.90;;;;;;5133363;27;20738;-74
2021/07/01 05:04:09;;;;;;;14.95;9.75;;;15.20;99.90;;;;;;5133403;27;20027;-73
2021/07/01 05:06:35;;;;;;;19.48;9.68;;;15.20;99.90;;;;;;5133260;27;20019;-72
2021/07/01 05:09:00;;;;;;;21.75;9.50;;;15.30;99.90;;;;;;5133683;27;20436;-73
2021/07/01 05:11:26;;;;;;;24.38;10.57;;;15.30;99.90;;;;;;5133424;27;20080;-73
2021/07/01 05:13:52;;;;;;;19.52;9.68;;;15.30;99.90;;;;;;5133012;27;20032;-72
2021/07/01 05:16:17;;;;;;;19.65;9.90;;;15.30;99.90;;;;;;5133269;27;20480;-71
2021/07/01 05:18:43;;;;;;;18.48;9.57;;;15.30;99.90;;;;;;5133043;27;20368;-72
2021/07/01 05:21:08;;;;;;;20.95;10.68;;;15.30;99.90;;;;;;5133478;27;20126;-72
2021/07/01 05:23:34;;;;;;;19.90;9.85;;;15.40;99.90;;;;;;5132046;27;20041;-73
2021/07/01 05:26:00;;;;;;;23.77;9.93;;;15.40;99.90;;;;;;5133067;27;20036;-74
2021/07/01 05:28:25;;;;;;;22.45;9.80;;;15.20;99.90;;;;;;5131865;27;20069;-73
2021/07/01 05:30:51;;;;;;;25.73;10.80;;;15.20;99.90;;;;;;5116686;27;20024;-72
2021/07/01 05:33:16;;;;;;;20.38;9.05;;;15.30;99.90;;;;;;5112657;28;20069;-71
2021/07/01 05:35:42;;;;;;;23.77;10.65;;;15.30;99.90;;;;;;5112337;28;20073;-73
2021/07/01 05:38:08;;;;;;;29.35;12.48;;;15.20;99.90;;;;;;5112236;27;20083;-75
2021/07/01 05:40:33;;;;;;;20.27;11.15;;;15.30;99.90;;;;;;5110854;28;20044;-72
2021/07/01 05:43:00;;;;;;;23.25;9.93;;;15.30;99.90;;;;;;5112228;28;20047;-75
2021/07/01 05:45:26;;;;;;;20.65;10.20;;;15.40;99.90;;;;;;5112218;28;20118;-74
2021/07/01 05:47:51;;;;;;;19.08;10.30;;;15.50;99.90;;;;;;5133525;27;20117;-75
2021/07/01 05:50:17;;;;;;;19.00;9.85;;;15.50;99.90;;;;;;5132313;27;20020;-75
2021/07/01 05:52:46;;;;;;;17.85;9.48;;;15.50;99.90;;;;;;5132596;27;20388;-74
2021/07/01 05:55:12;;;;;;;27.10;11.02;;;15.60;99.90;;;;;;5131481;27;20034;-74
2021/07/01 05:57:37;;;;;;;23.55;12.18;;;15.60;99.90;;;;;;5132514;27;20130;-74
2021/07/01 06:00:09;;;;;;;20.23;10.43;;;15.60;99.90;;;;;;5132783;27;20027;-73
2021/07/01 06:02:34;;;;;;;18.63;10.10;;;15.50;99.90;;;;;;5132374;27;20027;-75
2021/07/01 06:05:00;;;;;;;22.33;10.00;;;15.60;99.90;;;;;;5132700;27;20035;-73
2021/07/01 06:07:27;;;;;;;21.50;10.45;;;15.70;99.90;;;;;;5131440;27;20076;-74
2021/07/01 06:09:55;;;;;;;21.85;10.70;;;15.60;99.90;;;;;;5132309;27;20031;-74
2021/07/01 06:12:23;;;;;;;21.15;10.75;;;15.50;99.90;;;;;;5132547;27;20110;-74
2021/07/01 06:14:57;;;;;;;27.77;11.93;;;15.60;99.90;;;;;;5132078;27;20055;-74
2021/07/01 06:17:30;;;;;;;23.65;11.00;;;15.60;99.90;;;;;;5132185;27;20023;-74
2021/07/01 06:19:55;;;;;;;22.42;10.95;;;15.60;99.90;;;;;;5131761;27;20545;-74
2021/07/01 06:22:22;;;;;;;25.42;11.50;;;15.60;99.90;;;;;;5132131;27;20027;-74
2021/07/01 06:24:53;;;;;;;21.15;11.25;;;15.50;99.90;;;;;;5132505;27;20027;-74
2021/07/01 06:27:25;;;;;;;26.95;10.90;;;15.60;99.90;;;;;;5130501;27;20457;-74
2021/07/01 06:29:52;;;;;;;21.27;11.00;;;15.70;99.90;;;;;;5131784;27;20047;-74
2021/07/01 06:32:17;;;;;;;22.98;10.57;;;15.70;99.90;;;;;;5131653;27;20555;-74
2021/07/01 06:34:44;;;;;;;17.98;10.35;;;15.60;99.90;;;;;;5131955;27;20052;-74
2021/07/01 06:37:12;;;;;;;20.30;10.27;;;15.70;99.90;;;;;;5131507;27;20035;-74
2021/07/01 06:39:39;;;;;;;;;;;15.70;99.90;;;;;;5132160;27;20035;-74
2021/07/01 06:42:05;;;;;;;17.45;9.65;;;15.70;99.90;;;;;;5131193;27;19903;-71
2021/07/01 06:44:31;;;;;;;16.77;9.60;;;15.60;99.90;;;;;;5131780;27;20078;-74
2021/07/01 06:46:57;;;;;;;18.27;9.77;;;15.70;99.90;;;;;;5131883;27;20027;-74
2021/07/01 06:49:29;;;;;;;18.02;9.73;;;15.70;99.90;;;;;;5131746;27;20034;-75
2021/07/01 06:51:55;;;;;;;19.05;10.63;;;15.70;99.90;;;;;;5131461;27;20027;-76
2021/07/01 06:54:22;;;;;;;17.50;9.90;;;15.70;99.90;;;;;;5130770;28;20039;-75
2021/07/01 06:56:48;;;;;;;20.00;9.50;;;15.70;99.90;;;;;;5131797;27;20028;-76
2021/07/01 06:59:13;;;;;;;15.05;8.88;;;15.70;99.90;;;;;;5131373;27;20167;-75
2021/07/01 07:01:41;;;;;;;14.00;7.95;;;15.70;99.90;;;;;;5130338;28;20348;-75
2021/07/01 07:04:06;;;;;;;12.07;7.90;;;15.70;99.90;;;;;;5131740;27;20027;-74
2021/07/01 07:06:35;;;;;;;18.00;7.63;;;15.70;99.90;;;;;;5130498;27;20046;-73
2021/07/01 07:09:02;;;;;;;14.77;7.80;;;15.60;99.90;;;;;;5132265;27;20054;-74
2021/07/01 07:11:28;;;;;;;14.38;7.63;;;15.60;99.90;;;;;;5131410;27;20031;-73
2021/07/01 07:13:53;;;;;;;15.35;7.72;;;15.60;99.90;;;;;;5131405;27;20019;-75
2021/07/01 07:16:20;;;;;;;9.48;6.90;;;15.70;99.90;;;;;;5131662;27;20299;-75
2021/07/01 07:18:48;;;;;;;12.30;7.25;;;15.70;99.90;;;;;;5131640;27;20042;-73
2021/07/01 07:21:17;;;;;;;13.73;8.00;;;15.70;99.90;;;;;;5131477;27;20027;-72
2021/07/01 07:23:46;;;;;;;13.48;7.38;;;15.80;99.90;;;;;;5131323;27;20035;-73
2021/07/01 07:26:21;;;;;;;11.95;7.05;;;15.70;99.90;;;;;;5131390;27;20100;-73
2021/07/01 07:28:52;;;;;;;10.68;6.53;;;15.70;99.90;;;;;;5131545;27;20075;-73
2021/07/01 07:31:24;;;;;;;11.50;6.43;;;15.80;99.90;;;;;;5131280;27;20110;-74
2021/07/01 07:33:55;;;;;;;16.95;7.82;;;15.70;99.90;;;;;;5129931;28;20405;-74
2021/07/01 07:36:22;;;;;;;11.73;5.90;;;15.80;99.90;;;;;;5131893;27;20091;-72
2021/07/01 07:38:52;;;;;;;11.65;5.70;;;15.70;99.90;;;;;;5131649;27;20062;-74
2021/07/01 07:41:19;;;;;;;12.10;5.78;;;15.70;99.90;;;;;;5133904;27;20035;-74
2021/07/01 07:43:46;;;;;;;9.38;5.40;;;15.70;99.90;;;;;;5134806;27;20075;-74
2021/07/01 07:46:12;;;;;;;9.65;6.05;;;15.70;99.90;;;;;;5133886;27;20042;-74
2021/07/01 07:48:40;;;;;;;8.65;5.65;;;15.70;99.90;;;;;;5133887;27;20019;-73
2021/07/01 07:51:08;;;;;;;7.43;5.55;;;15.80;99.90;;;;;;5134613;27;20496;-75
2021/07/01 07:53:36;;;;;;;9.32;5.70;;;15.80;99.90;;;;;;5133673;27;20031;-73
2021/07/01 07:56:07;;;;;;;9.00;5.40;;;15.90;99.90;;;;;;5136042;27;20031;-75
2021/07/01 07:58:35;;;;;;;10.15;5.82;;;15.90;99.90;;;;;;5135072;27;20053;-73
2021/07/01 08:01:01;;;;;;;10.73;6.53;;;15.90;99.90;;;;;;5134951;27;20220;-75
2021/07/01 08:03:34;;;;;;;6.45;4.47;;;15.90;99.90;;;;;;5134668;27;20083;-74
2021/07/01 08:06:02;;;;;;;10.35;5.15;;;15.90;99.90;;;;;;5133907;27;20023;-74
2021/07/01 08:08:30;;;;;;;9.57;5.43;;;15.90;99.90;;;;;;5135051;27;20034;-75
2021/07/01 08:10:58;;;;;;;12.15;5.32;;;15.90;99.90;;;;;;5134643;27;20050;-75
2021/07/01 08:13:26;;;;;;;10.38;5.18;;;15.90;99.90;;;;;;5134497;27;20023;-74
2021/07/01 08:15:52;;;;;;;8.75;4.97;;;16.00;99.90;;;;;;5134359;27;20076;-74
2021/07/01 08:18:29;;;;;;;8.00;5.07;;;16.20;99.90;;;;;;5134525;27;20106;-74
2021/07/01 08:20:56;;;;;;;10.77;4.85;;;16.10;99.90;;;;;;5134384;27;20042;-73
2021/07/01 08:23:22;;;;;;;9.90;5.50;;;16.10;99.90;;;;;;5134172;27;20050;-75
2021/07/01 08:25:48;;;;;;;9.00;4.68;;;16.10;99.90;;;;;;5134654;27;20453;-73
2021/07/01 08:28:20;;;;;;;13.32;5.57;;;16.20;99.90;;;;;;5132748;27;20360;-73
2021/07/01 08:30:46;;;;;;;9.27;4.60;;;16.10;99.90;;;;;;5133989;27;20020;-72
2021/07/01 08:33:15;;;;;;;11.50;4.30;;;16.10;99.90;;;;;;5134499;27;20023;-73
2021/07/01 08:35:41;;;;;;;6.82;4.25;;;16.10;99.90;;;;;;5134273;27;20073;-73
2021/07/01 08:38:08;;;;;;;12.63;6.82;;;16.10;99.90;;;;;;5133768;27;20067;-73
2021/07/01 08:40:36;;;;;;;6.90;4.95;;;16.10;99.90;;;;;;5132657;27;20053;-73
2021/07/01 08:43:04;;;;;;;8.85;5.30;;;16.10;99.90;;;;;;5133723;27;20550;-73
2021/07/01 08:46:11;;;;;;;6.72;4.65;;;16.20;99.90;;;;;;5133367;27;20119;-73
2021/07/01 08:49:08;;;;;;;8.67;4.87;;;16.00;99.90;;;;;;5114738;27;20368;-73
2021/07/01 08:51:38;;;;;;;8.88;5.25;;;16.00;99.90;;;;;;5133552;27;20255;-74
2021/07/01 08:54:23;;;;;;;11.18;5.72;;;16.00;99.90;;;;;;5132852;27;20146;-74
2021/07/01 08:56:53;;;;;;;23.05;12.00;;;16.00;99.90;;;;;;5133923;27;20047;-75
2021/07/01 08:59:21;;;;;;;9.93;6.25;;;16.00;99.90;;;;;;5133565;27;20088;-75
2021/07/01 09:01:56;;;;;;;12.70;5.60;;;16.00;99.90;;;;;;5133317;27;20043;-75
2021/07/01 09:04:24;;;;;;;8.43;5.07;;;16.10;99.90;;;;;;5132203;27;20110;-75
2021/07/01 09:07:01;;;;;;;8.38;4.97;;;16.10;99.90;;;;;;5133433;27;20046;-74
2021/07/01 09:09:34;;;;;;;13.20;5.00;;;16.20;99.90;;;;;;5133520;27;20019;-76
2021/07/01 09:12:06;;;;;;;6.85;4.65;;;16.10;99.90;;;;;;5132531;27;20031;-75
2021/07/01 09:14:33;;;;;;;9.55;5.72;;;16.20;99.90;;;;;;5132966;27;20503;-75
2021/07/01 09:17:06;;;;;;;7.55;5.07;;;16.10;99.90;;;;;;5133261;27;20050;-75
2021/07/01 09:19:33;;;;;;;9.07;4.85;;;16.20;99.90;;;;;;5132561;27;20027;-75
2021/07/01 09:22:00;;;;;;;10.30;4.13;;;16.10;99.90;;;;;;5132963;27;20031;-74
2021/07/01 09:24:27;;;;;;;8.10;3.90;;;16.20;99.90;;;;;;5133304;27;20053;-73
2021/07/01 09:26:56;;;;;;;7.05;4.18;;;16.30;99.90;;;;;;5132999;27;20035;-75
2021/07/01 09:29:23;;;;;;;6.65;4.40;;;16.20;99.90;;;;;;5132988;27;20019;-74
2021/07/01 09:31:49;;;;;;;6.90;4.22;;;16.20;99.90;;;;;;5132926;27;20027;-75
2021/07/01 09:34:17;;;;;;;7.90;5.03;;;16.20;99.90;;;;;;5132951;27;20061;-75
2021/07/01 09:36:42;;;;;;;7.05;3.65;;;16.20;99.90;;;;;;5132750;27;20026;-75
2021/07/01 09:39:09;;;;;;;10.15;3.75;;;16.20;99.90;;;;;;5133070;27;20043;-76
2021/07/01 09:41:35;;;;;;;7.07;3.88;;;16.30;99.90;;;;;;5132320;27;20087;-73
2021/07/01 09:44:02;;;;;;;4.95;3.00;;;16.20;99.90;;;;;;5132488;27;20406;-74
2021/07/01 09:46:30;;;;;;;5.55;3.33;;;16.20;99.90;;;;;;5132592;27;20035;-74
2021/07/01 09:48:58;;;;;;;;;;;16.30;99.90;;;;;;5132716;27;20113;-74
2021/07/01 09:51:27;;;;;;;5.18;4.00;;;16.30;99.90;;;;;;5133101;27;19911;-75
2021/07/01 09:53:53;;;;;;;7.38;4.03;;;16.30;99.90;;;;;;5131293;27;20412;-73
2021/07/01 09:56:38;;;;;;;5.65;3.10;;;16.40;99.90;;;;;;5132267;27;20027;-74
2021/07/01 09:59:10;;;;;;;5.55;3.00;;;16.30;99.90;;;;;;5132308;27;20475;-74
2021/07/01 10:01:38;;;;;;;5.53;3.42;;;16.40;99.90;;;;;;5131139;27;20039;-74
2021/07/01 10:04:06;;;;;;;4.25;2.70;;;16.40;99.90;;;;;;5131108;27;20027;-74
2021/07/01 10:06:31;;;;;;;6.53;2.90;;;16.50;99.90;;;;;;5133095;27;20064;-73
2021/07/01 10:08:57;;;;;;;3.80;2.70;;;16.40;99.90;;;;;;5132708;27;20051;-74
2021/07/01 10:11:38;;;;;;;7.78;3.45;;;16.40;99.90;;;;;;5132181;27;20461;-74
2021/07/01 10:14:10;;;;;;;3.60;2.60;;;16.40;99.90;;;;;;5131803;27;20035;-74
2021/07/01 10:16:36;;;;;;;5.50;2.95;;;16.40;99.90;;;;;;5132068;27;20512;-74
2021/07/01 10:19:05;;;;;;;4.93;2.75;;;16.40;99.90;;;;;;5131670;27;20035;-75
2021/07/01 10:21:32;;;;;;;4.90;2.55;;;16.40;99.90;;;;;;5131875;27;20077;-72
2021/07/01 10:24:21;;;;;;;5.30;4.45;;;16.40;99.90;;;;;;5132268;27;20071;-73
2021/07/01 10:26:49;;;;;;;5.25;3.03;;;16.40;99.90;;;;;;5131912;27;20040;-75
2021/07/01 10:29:16;;;;;;;2.92;2.40;;;16.40;99.90;;;;;;5131869;27;20041;-73
2021/07/01 10:31:59;;;;;;;4.25;2.53;;;16.40;99.90;;;;;;5130378;27;20046;-73
2021/07/01 10:34:26;;;;;;;5.45;2.60;;;16.40;99.90;;;;;;5132100;27;20119;-73
2021/07/01 10:37:19;;;;;;;3.53;2.22;;;16.50;99.90;;;;;;5131645;27;20100;-73
2021/07/01 10:39:50;;;;;;;2.13;1.92;;;16.40;99.90;;;;;;5131688;27;20039;-73
2021/07/01 10:42:16;;;;;;;3.85;2.22;;;16.50;99.90;;;;;;5132119;27;20119;-73
2021/07/01 10:44:42;;;;;;;4.00;1.67;;;16.50;99.90;;;;;;5130790;27;20043;-72
2021/07/01 10:47:27;;;;;;;2.25;1.90;;;16.60;99.90;;;;;;5131868;27;20589;-73
2021/07/01 10:49:53;;;;;;;6.70;2.00;;;16.50;99.90;;;;;;5130335;27;20409;-72
2021/07/01 10:52:19;;;;;;;4.20;2.10;;;16.40;99.90;;;;;;5131268;27;20473;-74
2021/07/01 10:54:56;;;;;;;4.72;1.40;;;16.50;99.90;;;;;;5131608;27;20027;-73
2021/07/01 10:57:26;;;;;;;2.95;1.38;;;16.60;99.90;;;;;;5131732;27;20058;-73
2021/07/01 10:59:53;;;;;;;4.28;1.58;;;16.60;99.90;;;;;;5131557;27;20534;-75
2021/07/01 11:02:28;;;;;;;2.72;1.75;;;16.50;99.90;;;;;;5131729;27;20024;-74
2021/07/01 11:04:59;;;;;;;2.95;2.00;;;16.60;99.90;;;;;;5131085;27;20465;-76
2021/07/01 11:07:27;;;;;;;1.83;1.55;;;16.70;99.90;;;;;;5130933;27;20391;-74
2021/07/01 11:09:56;;;;;;;4.20;1.70;;;16.80;99.90;;;;;;5130899;27;20096;-74
2021/07/01 11:12:25;;;;;;;3.45;1.65;;;16.80;99.90;;;;;;5132433;27;20021;-75
2021/07/01 11:14:54;;;;;;;2.10;1.48;;;16.90;99.90;;;;;;5135590;27;20130;-74
2021/07/01 11:17:35;;;;;;;1.90;1.20;;;17.00;99.90;;;;;;5135233;27;20091;-73
2021/07/01 11:20:15;;;;;;;2.42;1.45;;;17.00;99.90;;;;;;5135333;27;20035;-74
2021/07/01 11:22:51;;;;;;;10.27;6.10;;;17.00;99.90;;;;;;5135318;27;20139;-73
2021/07/01 11:25:25;;;;;;;4.82;1.40;;;17.00;99.90;;;;;;5135437;27;20035;-73
2021/07/01 11:27:51;;;;;;;5.72;2.15;;;17.00;99.90;;;;;;5135067;27;20039;-75
2021/07/01 11:30:25;;;;;;;4.65;1.88;;;17.10;99.90;;;;;;5135625;27;20030;-74
2021/07/01 11:33:11;;;;;;;4.15;1.58;;;17.10;99.90;;;;;;5135452;27;20027;-75
2021/07/01 11:35:37;;;;;;;1.23;0.77;;;17.00;99.90;;;;;;5135198;27;20043;-75
2021/07/01 11:38:02;;;;;;;1.10;0.93;;;17.00;99.90;;;;;;5133846;27;20054;-73
2021/07/01 11:40:28;;;;;;;2.42;1.05;;;17.00;99.90;;;;;;5134770;27;20084;-75
2021/07/01 11:42:54;;;;;;;2.45;0.90;;;17.10;99.90;;;;;;5135164;27;20031;-73
2021/07/01 11:45:21;;;;;;;6.35;1.20;;;17.10;99.90;;;;;;5134438;27;20031;-72
2021/07/01 11:47:50;;;;;;;2.10;1.08;;;17.00;99.90;;;;;;5135260;27;20118;-73
2021/07/01 11:50:15;;;;;;;1.02;0.80;;;17.00;99.90;;;;;;5134846;27;20032;-73
2021/07/01 11:52:42;;;;;;;6.47;3.35;;;17.00;99.90;;;;;;5134854;27;20038;-73
2021/07/01 11:55:10;;;;;;;1.85;0.88;;;17.10;99.90;;;;;;5134718;27;20406;-72
2021/07/01 11:57:35;;;;;;;1.85;1.00;;;17.20;99.90;;;;;;5134883;27;20026;-73
2021/07/01 12:00:01;;;;;;;1.63;0.65;;;17.00;99.90;;;;;;5135263;27;20027;-73
2021/07/01 12:02:27;;;;;;;0.63;0.52;;;17.10;99.90;;;;;;5134694;27;20038;-75
2021/07/01 12:04:52;;;;;;;1.35;0.73;;;17.00;99.90;;;;;;5134693;27;20039;-72
2021/07/01 12:07:30;;;;;;;0.88;0.55;;;17.10;99.90;;;;;;5134553;27;20470;-73
2021/07/01 12:09:57;;;;;;;4.75;2.80;;;17.10;99.90;;;;;;5134428;27;20050;-73
2021/07/01 12:12:25;;;;;;;1.00;0.68;;;17.20;99.90;;;;;;5134782;27;20152;-73
2021/07/01 12:15:10;;;;;;;1.48;0.80;;;17.20;99.90;;;;;;5134416;27;20062;-73
2021/07/01 12:17:58;;;;;;;1.42;0.70;;;17.20;99.90;;;;;;5134621;27;20035;-74
2021/07/01 12:20:54;;;;;;;2.42;1.40;;;17.30;99.90;;;;;;5134053;27;20042;-72
2021/07/01 12:23:23;;;;;;;1.33;0.70;;;17.30;99.90;;;;;;5134474;27;20088;-74
2021/07/01 12:25:56;;;;;;;2.10;0.70;;;17.30;99.90;;;;;;5133846;27;20034;-73
2021/07/01 12:28:26;;;;;;;0.75;0.50;;;17.30;99.90;;;;;;5134369;27;20042;-72
2021/07/01 12:31:04;;;;;;;0.55;0.45;;;17.30;99.90;;;;;;5134495;27;20472;-74
2021/07/01 12:33:39;;;;;;;3.72;0.65;;;17.40;99.90;;;;;;5134189;27;20478;-73
2021/07/01 12:36:18;;;;;;;1.15;0.60;;;17.30;99.90;;;;;;5134544;27;20472;-74
2021/07/01 12:39:05;;;;;;;1.45;0.70;;;17.30;99.90;;;;;;5133711;27;20063;-74
2021/07/01 12:42:11;;;;;;;2.33;0.50;;;17.40;99.90;;;;;;5133455;27;20042;-73
2021/07/01 12:44:38;;;;;;;0.38;0.35;;;17.20;99.90;;;;;;5133686;27;20088;-73